Nearby METAR Reports

 

KSJC - San Jose, California, USA
Distance from station: NE 14km
Updated: 2022-01-25 06:53
Clear
Clear
 Wind from calm
Wind: Calm
Temperature: 5°C
Dew Point: 3°C
Humidity: 87%
Barometer: 1017.9 hPa
Clouds: Clear
Visibility: 16 km
2022/01/25 12:53 KSJC 251253Z AUTO 00000KT 10SM CLR 05/03 A3006 RMK AO2 SLP178 T00500028
KNUQ - Moffett Nas/Mtn, California, USA
Distance from station: N 14km
Updated: 2022-01-25 07:15
Clear
Clear
 Wind from calm
Wind: Calm
Temperature: 5°C
Dew Point: 4°C
Humidity: 93%
Barometer: 1017.9 hPa
Clouds: Clear
Visibility: 16 km
2022/01/25 13:15 KNUQ 251315Z AUTO 00000KT 10SM CLR 05/04 A3006 RMK AO2
 
KPAO - Palo Alto, California, USA
Distance from station: NNW 23km
Updated: 2022-01-24 22:47
NOT Current
Clear
Clear
 Wind from calm
Wind: Calm
Temperature: 8°C
Dew Point: 6°C
Humidity: 87%
Barometer: 1019.3 hPa
Clouds: Clear
Visibility: 16 km
2022/01/25 04:47 KPAO 250447Z 00000KT 10SM SKC 08/06 A3010 RMK LAST
KRHV - San Jose/Reid, California, USA
Distance from station: ENE 19km
Updated: 2022-01-24 23:50
NOT Current
Clear
Clear
 Wind from calm
Wind: Calm
Temperature: 8°C
Dew Point: 6°C
Humidity: 87%
Barometer: 1019.3 hPa
Clouds: Clear
Visibility: 16 km
2022/01/25 05:50 KRHV 250550Z 00000KT 10SM SKC 08/06 A3010 RMK LAST
 
KOAK - Oakland, California, USA
Distance from station: NNW 50km
Updated: 2022-01-25 06:53
Overcast
Overcast
 Wind from NE
Wind: NE 7 km/h
Temperature: 7°C
Wind Chill: 6°C
Dew Point: 6°C
Humidity: 93%
Barometer: 1018.3 hPa
Clouds: Overcast
Visibility: 16 km
Cloud details: Overcast 213 m
2022/01/25 12:53 KOAK 251253Z 05004KT 10SM OVC007 07/06 A3007 RMK AO2 SLP180 T00670056 $
KSQL - San Carlos Airpo, California, USA
Distance from station: NW 34km
Updated: 2022-01-25 07:15
Clear
Clear
 Wind from calm
Wind: Calm
Temperature: 5°C
Dew Point: 5°C
Humidity: 100%
Barometer: 1018.3 hPa
Clouds: Clear
Visibility: 16 km
2022/01/25 13:15 KSQL 251315Z AUTO 00000KT 10SM CLR 05/05 A3007 RMK AO2
 
KSFO - San Francisco, California, USA
Distance from station: NW 49km
Updated: 2022-01-25 06:56
Partly cloudy
Partly cloudy
 Wind from calm
Wind: Calm
Temperature: 7°C
Dew Point: 6°C
Humidity: 93%
Barometer: 1017.9 hPa
Clouds: Partly cloudy
Visibility: 16 km
Cloud details: Few Clouds 152 m
Partly cloudy 183 m
2022/01/25 12:56 KSFO 251256Z 00000KT 10SM FEW005 SCT006 07/06 A3006 RMK AO2 SLP178 T00720056
KE16 - San Martin, California, USA
Distance from station: ESE 43km
Updated: 2022-01-25 06:50
Mostly cloudy
Mostly cloudy
 Wind from calm
Wind: Calm
Temperature: 2°C
Dew Point: 1°C
Humidity: 93%
Barometer: 1018.6 hPa
Clouds: Mostly cloudy
Visibility: 13 km
Cloud details: Mostly cloudy 488 m
2022/01/25 12:50 KE16 251250Z AUTO 00000KT 8SM BKN016 02/01 A3008 RMK AO2
 
KWVI - Watsonville, California, USA
Distance from station: SSE 44km
Updated: 2022-01-25 06:53
Clear
Clear
 Wind from calm
Wind: Calm
Temperature: 3°C
Dew Point: 3°C
Humidity: 100%
Barometer: 1017.6 hPa
Clouds: Clear
Visibility: 14 km
2022/01/25 12:53 KWVI 251253Z AUTO 00000KT 9SM CLR 03/03 A3005 RMK AO2 SLP178 T00330033
KHAF - Half Moon Bay, California, USA
Distance from station: WNW 50km
Updated: 2022-01-25 07:15
Mist, Overcast
Mist, Overcast
 Wind from calm
Wind: Calm
Temperature: 6°C
Dew Point: 6°C
Humidity: 100%
Barometer: 1017.9 hPa
Summary: Mist
Clouds: Overcast
Visibility: 10 km
Cloud details: Overcast 244 m
2022/01/25 13:15 KHAF 251315Z AUTO 00000KT 6SM BR OVC008 06/06 A3006 RMK AO2
 
KHWD - Hayward, California, USA
Distance from station: N 44km
Updated: 2022-01-25 06:54
Clear
Clear
 Wind from ENE
Wind: ENE 11 km/h
Temperature: 7°C
Wind Chill: 5°C
Dew Point: 4°C
Humidity: 81%
Barometer: 1017.9 hPa
Clouds: Clear
Visibility: 16 km
2022/01/25 12:54 KHWD 251254Z AUTO 06006KT 10SM CLR 07/04 A3006 RMK AO2 SLP188 T00670044
KLVK - Livermore, California, USA
Distance from station: NNE 51km
Updated: 2022-01-25 06:53
Clear
Clear
 Wind from calm
Wind: Calm
Temperature: 3°C
Dew Point: 1°C
Humidity: 87%
Barometer: 1017.9 hPa
Clouds: Clear
Visibility: 13 km
2022/01/25 12:53 KLVK 251253Z AUTO 00000KT 8SM CLR 03/01 A3006 RMK AO2 SLP178 T00280011